This is the latest recevied weather packets stored in our database for station/object WC0AA-WX. If no packets are shown the sender has not sent any weather packets the latest 10 day(s).
| Time | Temp. | Humidity | Pressure | Rain* | Wind** | Luminosity | Snow |
|---|---|---|---|---|---|---|---|
| 1787552046 | 17.78° C | 97% | 1016.8 hPa | 0 mm | - | - | - |
| 1787551448 | 17.78° C | 97% | 1016.8 hPa | 0 mm | - | - | - |
| 1787550247 | 17.78° C | 97% | 1016.9 hPa | 0 mm | - | - | - |
| 1787548446 | 17.78° C | 97% | 1017 hPa | 0 mm | - | - | - |
| 1787547246 | 18.33° C | 97% | 1017.1 hPa | 0 mm | - | - | - |
| 1787546645 | 18.33° C | 97% | 1017.1 hPa | 0 mm | - | - | - |
| 1787544215 | 18.33° C | 100% | 1017 hPa | 0 mm | - | - | - |
| 1787543015 | 18.33° C | 100% | 1017.3 hPa | 0 mm | - | - | - |
| 1787541814 | 18.89° C | 100% | 1017.5 hPa | 0 mm | - | - | - |
| 1787541185 | 18.89° C | 100% | 1017.5 hPa | 0 mm | - | - | - |
| 1787539384 | 19.44° C | 100% | 1017.3 hPa | 0 mm | - | - | - |
| 1787538784 | 19.44° C | 100% | 1017.3 hPa | 0 mm | - | - | - |
| 1787537584 | 20° C | 100% | 1017.4 hPa | 0 mm | - | - | - |
| 1787536384 | 20° C | 100% | 1017.3 hPa | 0 mm | - | - | - |
| 1787535184 | 20.56° C | 96% | 1017.2 hPa | 0 mm | - | - | - |
| 1787533985 | 21.11° C | 95% | 1017.3 hPa | 0 mm | - | - | - |
| 1787532784 | 21.67° C | 93% | 1017 hPa | 0 mm | - | - | - |
| 1787532153 | 22.22° C | 93% | 1017.1 hPa | 0 mm | - | - | - |
| 1787531553 | 22.22° C | 92% | 1016.9 hPa | 0 mm | - | - | - |
| 1787530953 | 22.22° C | 92% | 1016.9 hPa | 0 mm | - | - | - |
| 1787530353 | 22.22° C | 92% | 1017 hPa | 0 mm | - | - | - |
| 1787529153 | 22.22° C | 93% | 1017.1 hPa | 0 mm | - | - | - |
| 1787522551 | 22.78° C | 91% | 1018.3 hPa | 0 mm | - | - | - |
| 1787519521 | 21.67° C | 95% | 1018.9 hPa | 0.25 mm | - | - | - |
| 1787517720 | 21.67° C | 95% | 1019.2 hPa | 0.25 mm | - | - | - |
* Rain latest hour (hover to see other rain measurements)
** Current wind speed in m/s (hover to see current wind gust speed)